ADDS METAR Data INFO
IDs: Format: Raw Decoded Include TAF

Data at: 0212 UTC 17 Aug 2018

PAIN 170156Z AUTO 00000KT 10SM -RA BKN041 OVC050 13/06 A2991 RMK AO2 RAB45 SLP146 P0000 T01280056
PAIN 170056Z AUTO 12005KT 10SM OVC040 12/06 A2990 RMK AO2 SLP146 T01220056
PAIN 162356Z AUTO 12004KT 10SM OVC048 12/04 A2991 RMK AO2 SLP146 T01220044 10128 20100 55000
PAIN 162256Z AUTO 00000KT 10SM OVC050 13/03 A2990 RMK AO2 SLP145 T01280033
PAIN 162156Z AUTO 01004KT 10SM OVC055 12/03 A2990 RMK AO2 SLP144 T01220028
PAIN 162056Z AUTO VRB03KT 10SM OVC048 12/04 A2991 RMK AO2 SLP146 T01220039 58003
PAIN 161956Z AUTO 02006KT 10SM BKN030 OVC039 11/05 A2991 RMK AO2 SLP149 T01110050
PAIN 161856Z AUTO VRB03KT 10SM BKN045 OVC075 11/06 A2991 RMK AO2 SLP149 T01060061
PAIN 161756Z AUTO VRB03KT 10SM FEW010 BKN065 10/07 A2992 RMK AO2 SLP150 T01000067 10100 20044 58001
PAIN 161656Z AUTO 00000KT 10SM OVC070 08/06 A2993 RMK AO2 SLP152 T00830061
PAIN 161556Z AUTO 00000KT 10SM OVC065 06/05 A2993 RMK AO2 SLP154 T00610050
PAIN 161456Z AUTO 00000KT 10SM OVC065 05/04 A2992 RMK AO2 SLP151 T00500039 51001
PAIN 161356Z AUTO 00000KT 10SM OVC049 04/04 A2992 RMK AO2 SLP152 T00440039
PAIN 161256Z AUTO 00000KT 10SM FEW036 SCT070 05/04 A2992 RMK AO2 SLP151 T00500039
PAIN 161156Z AUTO 22003KT 10SM OVC060 06/04 A2992 RMK AO2 SLP150 60000 70006 T00560044 10078 20056 50002
PAIN 161056Z AUTO 00000KT 10SM OVC047 06/05 A2992 RMK AO2 RAB0959E48 SLP150 P0000 T00610050
PAIN 160956Z AUTO 00000KT 10SM OVC043 06/05 A2992 RMK AO2 SLP152 T00610050
PAIN 160856Z AUTO 00000KT 10SM OVC050 06/04 A2991 RMK AO2 SLP149 T00610044 401280056 51007
PAIN 160756Z AUTO 00000KT 10SM BKN036 OVC055 06/04 A2991 RMK AO2 SLP149 T00560039
PAIN 160656Z AUTO 00000KT 10SM FEW060 06/04 A2990 RMK AO2 SLP147 T00610044
PAIN 160556Z AUTO 00000KT 10SM CLR 08/06 A2989 RMK AO2 SLP142 60001 T00780056 10128 20078 53004
PAIN 160456Z AUTO 00000KT 10SM CLR 11/06 A2988 RMK AO2 RAB08E24 SLP137 P0000 T01060061
PAIN 160356Z AUTO 01003KT 10SM FEW043 SCT095 12/06 A2988 RMK AO2 SLP135 T01170061
PAIN 160256Z AUTO 36005KT 10SM OVC045 13/06 A2988 RMK AO2 RAB37E51 SLP134 P0000 60001 T01280061 56004
PAIN 160156Z AUTO 36006KT 10SM SCT043 OVC060 12/06 A2988 RMK AO2 SLP135 T01170056
PAIN 160056Z AUTO VRB04KT 10SM SCT043 OVC055 13/07 A2988 RMK AO2 RAB02E51 SLP136 P0001 T01280067
PAIN 152356Z AUTO 02005KT 10SM SCT047 OVC055 12/06 A2989 RMK AO2 SLP139 60001 T01170061 10128 20089 56006
PAIN 152347Z AUTO 35005KT 10SM FEW020 BKN047 OVC060 12/06 A2989 RMK AO2
PAIN 152308Z AUTO VRB05KT 10SM BKN018 OVC040 13/07 A2989 RMK AO2
PAIN 152256Z AUTO 02004KT 10SM SCT018 OVC040 12/07 A2990 RMK AO2 SLP142 T01220067
PAIN 152227Z AUTO 00000KT 10SM SCT016 SCT029 OVC040 11/07 A2990 RMK AO2
PAIN 152217Z AUTO 04003KT 10SM BKN014 BKN025 OVC042 12/07 A2990 RMK AO2
PAIN 152156Z AUTO VRB03KT 10SM FEW012 OVC038 11/08 A2991 RMK AO2 RAE54 SLP145 P0000 T01060078
PAIN 152056Z AUTO 00000KT 10SM -RA SCT024 BKN031 OVC038 10/07 A2991 RMK AO2 RAB23 SLP146 P0001 60001 T01000072 53003
PAIN 152008Z AUTO 00000KT 10SM FEW011 OVC043 10/08 A2990 RMK AO2
PAIN 151956Z AUTO VRB03KT 10SM FEW011 BKN017 OVC047 10/08 A2990 RMK AO2 RAE35 SLP143 P0000 T01000078
PAIN 151856Z AUTO 11003KT 10SM -RA SCT008 BKN015 OVC050 09/08 A2990 RMK AO2 SLP143 P0000 T00940078
PAIN 151846Z AUTO 11004KT 10SM -RA FEW008 BKN013 OVC050 09/07 A2990 RMK AO2 P0000
PAIN 151812Z AUTO VRB03KT 10SM -RA SCT016 OVC050 09/08 A2990 RMK AO2 P0000
PAIN 151756Z AUTO VRB03KT 10SM -RA FEW005 BKN016 OVC050 09/08 A2990 RMK AO2 SLP142 P0001 60004 T00890078 10089 20072 51005
PAIN 151741Z AUTO 00000KT 10SM -RA FEW005 SCT016 OVC050 08/08 A2990 RMK AO2 P0001
PAIN 151656Z AUTO 00000KT 10SM -RA OVC050 08/08 A2989 RMK AO2 SLP141 P0001 T00830078
PAIN 151556Z AUTO 00000KT 10SM -RA OVC055 08/07 A2988 RMK AO2 SLP138 P0000 T00780072
PAIN 151456Z AUTO 00000KT 10SM -RA OVC055 08/07 A2987 RMK AO2 SLP134 P0001 60002 T00780067 53007